Time;durP1;ratioP1;P1;durP2;ratioP2;P2;SDS_P1;SDS_P2;PMS_P1;PMS_P2;Temp;Humidity;BMP_temperature;BMP_pressure;BME280_temperature;BME280_humidity;BME280_pressure;Samples;Min_cycle;Max_cycle;Signal;HPM_P1;HPM_P2
2023/12/13 00:00:51;;;;;;;;;;;;;;;17.92;61.31;97765.91;2076473;28;19929;-67
2023/12/13 00:01:51;;;;;;;;;;;;;;;17.93;61.30;97770.22;2072520;28;19972;-68
2023/12/13 00:02:53;;;;;;;;;;;;;;;17.93;61.18;97753.28;2067810;28;19925;-67
2023/12/13 00:03:53;;;;;;;;;;;;;;;17.90;61.29;97757.25;2067256;28;19952;-67
2023/12/13 00:04:55;;;;;;;;;;;;;;;17.88;61.53;97748.59;2069173;28;19926;-67
2023/12/13 00:05:56;;;;;;;;;;;;;;;17.88;61.53;97742.41;2070385;28;19925;-68
2023/12/13 00:06:56;;;;;;;;;;;;;;;17.89;61.48;97741.38;2069247;28;20860;-68
2023/12/13 00:07:58;;;;;;;;;;;;;;;17.86;61.44;97738.09;2070134;28;19925;-68
2023/12/13 00:08:58;;;;;;;;;;;;;;;17.87;61.58;97736.22;2067969;28;19952;-68
2023/12/13 00:10:00;;;;;;;;;;;;;;;17.85;61.40;97741.78;2060452;28;20023;-68
2023/12/13 00:11:01;;;;;;;;;;;;;;;17.85;61.58;97739.09;2068747;28;19932;-67
2023/12/13 00:12:03;;;;;;;;;;;;;;;17.86;61.61;97737.28;2067168;28;20789;-68
2023/12/13 00:13:05;;;;;;;;;;;;;;;17.84;61.62;97728.63;2068531;28;20344;-69
2023/12/13 00:14:05;;;;;;;;;;;;;;;17.82;61.48;97730.69;2069061;28;19925;-69
2023/12/13 00:15:08;;;;;;;;;;;;;;;17.82;61.73;97734.19;2069278;28;20363;-68
2023/12/13 00:16:09;;;;;;;;;;;;;;;17.83;61.62;97743.09;2064835;28;20399;-68
2023/12/13 00:17:14;;;;;;;;;;;;;;;17.85;61.37;97752.53;2068127;28;19925;-68
2023/12/13 00:18:14;;;;;;;;;;;;;;;17.84;61.30;97760.81;2069961;28;20020;-67
2023/12/13 00:19:16;;;;;;;;;;;;;;;17.88;61.39;97761.19;2069264;28;20364;-68
2023/12/13 00:20:17;;;;;;;;;;;;;;;17.84;61.55;97758.13;2067519;28;20407;-67
2023/12/13 00:21:18;;;;;;;;;;;;;;;17.80;61.62;97757.75;2070598;28;19960;-68
2023/12/13 00:22:19;;;;;;;;;;;;;;;17.79;61.71;97766.00;2068082;28;19948;-67
2023/12/13 00:23:20;;;;;;;;;;;;;;;17.79;61.53;97774.06;2068687;28;19921;-68
2023/12/13 00:24:22;;;;;;;;;;;;;;;17.81;61.75;97774.66;2066944;28;19973;-67
2023/12/13 00:25:23;;;;;;;;;;;;;;;17.78;61.80;97773.22;2067533;28;19959;-68
2023/12/13 00:26:24;;;;;;;;;;;;;;;17.82;61.73;97773.59;2072680;28;19952;-69
2023/12/13 00:27:27;;;;;;;;;;;;;;;17.81;61.47;97774.66;2072997;28;20467;-68
2023/12/13 00:28:28;;;;;;;;;;;;;;;17.78;61.58;97772.38;2073659;28;19925;-67
2023/12/13 00:29:29;;;;;;;;;;;;;;;17.77;61.59;97771.53;2075186;28;19945;-68
2023/12/13 00:30:31;;;;;;;;;;;;;;;17.76;61.61;97775.28;2068211;28;19921;-68
2023/12/13 00:31:31;;;;;;;;;;;;;;;17.74;61.77;97765.81;2072733;28;19929;-68
2023/12/13 00:32:33;;;;;;;;;;;;;;;17.73;61.78;97754.25;2076082;28;19956;-69
2023/12/13 00:33:33;;;;;;;;;;;;;;;17.73;61.86;97753.44;2071621;28;20557;-68
2023/12/13 00:34:35;;;;;;;;;;;;;;;17.74;61.83;97760.44;2068516;28;19956;-67
2023/12/13 00:35:36;;;;;;;;;;;;;;;17.74;61.67;97763.13;2066767;28;19936;-67
2023/12/13 00:36:36;;;;;;;;;;;;;;;17.74;61.77;97757.75;2068790;28;20605;-68
2023/12/13 00:37:38;;;;;;;;;;;;;;;17.73;61.77;97758.81;2069435;28;19961;-68
2023/12/13 00:38:38;;;;;;;;;;;;;;;17.72;61.68;97746.41;2069659;28;19929;-67
2023/12/13 00:39:40;;;;;;;;;;;;;;;17.71;61.63;97750.16;2068877;28;19971;-67
2023/12/13 00:40:41;;;;;;;;;;;;;;;17.71;61.67;97756.34;2068228;28;19929;-68
2023/12/13 00:41:42;;;;;;;;;;;;;;;17.70;61.78;97764.63;2067828;28;20727;-69
2023/12/13 00:42:44;;;;;;;;;;;;;;;17.68;61.72;97764.81;2068850;28;20407;-67
2023/12/13 00:43:47;;;;;;;;;;;;;;;17.70;61.88;97767.28;2068655;28;19983;-70
2023/12/13 00:44:47;;;;;;;;;;;;;;;17.70;61.91;97764.63;2070187;28;19925;-68
2023/12/13 00:45:49;;;;;;;;;;;;;;;17.66;61.83;97766.88;2066482;28;20383;-68
2023/12/13 00:46:49;;;;;;;;;;;;;;;17.67;61.99;97767.72;2068904;28;19932;-68
2023/12/13 00:47:51;;;;;;;;;;;;;;;17.67;61.93;97767.72;2067684;28;19976;-68
2023/12/13 00:48:51;;;;;;;;;;;;;;;17.68;61.62;97777.41;2070260;28;19925;-67
2023/12/13 00:49:54;;;;;;;;;;;;;;;17.67;61.92;97776.59;2068936;28;20400;-69
2023/12/13 00:50:56;;;;;;;;;;;;;;;17.67;61.82;97773.09;2068362;28;19925;-68
2023/12/13 00:51:57;;;;;;;;;;;;;;;17.66;62.12;97772.25;2065855;28;20368;-68
2023/12/13 00:52:58;;;;;;;;;;;;;;;17.68;61.71;97772.03;2067476;28;19925;-67
2023/12/13 00:54:00;;;;;;;;;;;;;;;17.64;61.71;97767.13;2067972;28;19949;-67
2023/12/13 00:55:01;;;;;;;;;;;;;;;17.62;61.88;97758.47;2070347;28;20400;-68
2023/12/13 00:56:02;;;;;;;;;;;;;;;17.61;61.83;97762.19;2067751;28;19926;-68
2023/12/13 00:57:03;;;;;;;;;;;;;;;17.60;61.99;97763.22;2069808;28;19928;-67
2023/12/13 00:58:05;;;;;;;;;;;;;;;17.62;62.04;97758.47;2074921;28;19926;-65
2023/12/13 00:59:07;;;;;;;;;;;;;;;17.62;61.99;97763.00;2077647;28;20350;-67
2023/12/13 01:00:09;;;;;;;;;;;;;;;17.61;62.05;97756.84;2075874;28;20887;-68
2023/12/13 01:01:11;;;;;;;;;;;;;;;17.61;61.92;97756.84;2076294;28;20440;-69
2023/12/13 01:02:12;;;;;;;;;;;;;;;17.60;61.95;97759.72;2075270;28;20435;-68
2023/12/13 01:03:14;;;;;;;;;;;;;;;17.61;61.92;97762.19;2066865;28;19925;-67
2023/12/13 01:04:14;;;;;;;;;;;;;;;17.63;61.83;97751.25;2066328;28;19960;-67
2023/12/13 01:05:15;;;;;;;;;;;;;;;17.62;61.97;97750.44;2069568;28;20575;-68
2023/12/13 01:06:17;;;;;;;;;;;;;;;17.59;61.90;97748.19;2065662;28;19929;-68
2023/12/13 01:07:17;;;;;;;;;;;;;;;17.61;61.83;97751.47;2069099;28;19925;-68
2023/12/13 01:08:19;;;;;;;;;;;;;;;17.61;61.98;97756.84;2067366;28;19965;-67
2023/12/13 01:09:19;;;;;;;;;;;;;;;17.60;62.02;97759.72;2069235;28;20407;-70
2023/12/13 01:10:20;;;;;;;;;;;;;;;17.60;61.92;97757.03;2070381;28;19960;-68
2023/12/13 01:11:24;;;;;;;;;;;;;;;17.57;62.03;97755.63;2066733;28;19925;-69
2023/12/13 01:12:25;;;;;;;;;;;;;;;17.59;62.07;97764.28;2070733;28;19982;-68
2023/12/13 01:13:27;;;;;;;;;;;;;;;17.57;61.82;97763.66;2075724;28;19921;-67
2023/12/13 01:14:29;;;;;;;;;;;;;;;17.59;62.20;97764.28;2067537;28;20016;-69
2023/12/13 01:15:30;;;;;;;;;;;;;;;17.59;61.83;97761.59;2069527;28;19921;-68
2023/12/13 01:16:33;;;;;;;;;;;;;;;17.58;62.12;97756.47;2072983;28;20491;-67
2023/12/13 01:17:33;;;;;;;;;;;;;;;17.56;61.88;97753.16;2075171;28;20437;-67
2023/12/13 01:18:35;;;;;;;;;;;;;;;17.57;61.81;97760.97;2077051;28;19976;-67
2023/12/13 01:19:35;;;;;;;;;;;;;;;17.57;61.94;97757.47;2072940;28;20008;-67
2023/12/13 01:20:36;;;;;;;;;;;;;;;17.56;61.93;97748.63;2068794;28;19929;-67
2023/12/13 01:21:38;;;;;;;;;;;;;;;17.56;62.16;97748.63;2066980;28;19975;-67
2023/12/13 01:22:38;;;;;;;;;;;;;;;17.57;61.85;97749.44;2066586;28;19925;-67
2023/12/13 01:23:39;;;;;;;;;;;;;;;17.54;61.87;97753.38;2067291;28;19960;-67
2023/12/13 01:24:40;;;;;;;;;;;;;;;17.55;61.96;97754.19;2068664;28;20305;-67
2023/12/13 01:25:41;;;;;;;;;;;;;;;17.54;62.09;97761.41;2069375;28;19929;-67
2023/12/13 01:26:43;;;;;;;;;;;;;;;17.54;61.97;97755.25;2067985;28;19987;-68
2023/12/13 01:27:43;;;;;;;;;;;;;;;17.54;62.08;97748.00;2069279;28;21724;-66
2023/12/13 01:28:46;;;;;;;;;;;;;;;17.54;61.79;97745.31;2069732;28;19976;-67
2023/12/13 01:29:47;;;;;;;;;;;;;;;17.54;61.87;97748.00;2068379;28;20468;-66
2023/12/13 01:30:48;;;;;;;;;;;;;;;17.53;61.86;97732.97;2069443;28;19921;-68
2023/12/13 01:31:49;;;;;;;;;;;;;;;17.53;61.91;97732.16;2067919;28;20483;-66
2023/12/13 01:32:50;;;;;;;;;;;;;;;17.53;62.03;97729.47;2069110;28;19957;-69
2023/12/13 01:33:51;;;;;;;;;;;;;;;17.53;61.88;97732.97;2069484;28;20774;-69
2023/12/13 01:34:53;;;;;;;;;;;;;;;17.53;62.12;97719.56;2067044;28;19956;-69
2023/12/13 01:35:54;;;;;;;;;;;;;;;17.52;62.05;97714.41;2067488;28;19936;-70
2023/12/13 01:36:55;;;;;;;;;;;;;;;17.52;62.00;97720.59;2070411;28;19956;-69
2023/12/13 01:37:56;;;;;;;;;;;;;;;17.49;62.12;97715.66;2066848;28;19932;-69
2023/12/13 01:38:58;;;;;;;;;;;;;;;17.49;61.93;97715.66;2070057;28;20435;-68
2023/12/13 01:39:58;;;;;;;;;;;;;;;17.51;61.92;97713.59;2066499;28;19930;-67
2023/12/13 01:40:59;;;;;;;;;;;;;;;17.52;61.96;97711.72;2068000;28;20337;-68
2023/12/13 01:42:00;;;;;;;;;;;;;;;17.50;61.91;97711.97;2066154;28;20064;-70
2023/12/13 01:43:01;;;;;;;;;;;;;;;17.50;61.85;97711.97;2068236;28;19921;-67
2023/12/13 01:44:05;;;;;;;;;;;;;;;17.52;62.01;97717.91;2068696;28;19926;-68
2023/12/13 01:45:08;;;;;;;;;;;;;;;17.50;61.92;97713.84;2076926;28;19932;-66
2023/12/13 01:46:10;;;;;;;;;;;;;;;17.51;61.99;97704.75;2065744;28;20004;-68
2023/12/13 01:47:10;;;;;;;;;;;;;;;17.51;61.86;97702.06;2069262;28;20299;-68
2023/12/13 01:48:12;;;;;;;;;;;;;;;17.50;62.15;97695.88;2066944;28;19976;-67
2023/12/13 01:49:13;;;;;;;;;;;;;;;17.51;62.00;97691.34;2067402;28;19960;-67
2023/12/13 01:50:15;;;;;;;;;;;;;;;17.50;62.06;97690.53;2066522;28;20557;-68
2023/12/13 01:51:15;;;;;;;;;;;;;;;17.50;61.84;97697.75;2068713;28;20422;-67
2023/12/13 01:52:17;;;;;;;;;;;;;;;17.52;61.85;97703.69;2069266;28;19968;-67
2023/12/13 01:53:18;;;;;;;;;;;;;;;17.51;61.78;97697.50;2067989;28;19944;-67
2023/12/13 01:54:20;;;;;;;;;;;;;;;17.51;61.85;97686.78;2067439;28;19930;-67
2023/12/13 01:55:21;;;;;;;;;;;;;;;17.50;61.96;97685.16;2067472;28;19926;-69
2023/12/13 01:56:23;;;;;;;;;;;;;;;17.49;61.81;97685.38;2066624;28;19925;-68
2023/12/13 01:57:23;;;;;;;;;;;;;;;17.50;61.83;97695.88;2067997;28;20519;-67
2023/12/13 01:58:25;;;;;;;;;;;;;;;17.51;61.96;97692.16;2069195;28;19974;-67
2023/12/13 01:59:28;;;;;;;;;;;;;;;17.49;61.87;97699.59;2068514;28;19929;-68
2023/12/13 02:00:29;;;;;;;;;;;;;;;17.50;61.96;97701.25;2072770;28;19925;-67
2023/12/13 02:01:31;;;;;;;;;;;;;;;17.50;61.73;97703.09;2076535;28;19931;-68
2023/12/13 02:02:31;;;;;;;;;;;;;;;17.49;61.74;97699.59;2077717;28;19928;-68
2023/12/13 02:03:34;;;;;;;;;;;;;;;17.48;61.90;97697.94;2074559;28;19925;-67
2023/12/13 02:04:35;;;;;;;;;;;;;;;17.47;62.03;97696.31;2071627;28;19928;-67
2023/12/13 02:05:36;;;;;;;;;;;;;;;17.50;61.90;97697.75;2071811;28;19963;-67
2023/12/13 02:06:37;;;;;;;;;;;;;;;17.49;61.91;97694.22;2067218;28;19925;-67
2023/12/13 02:07:39;;;;;;;;;;;;;;;17.47;61.88;97696.31;2069546;28;19968;-67
2023/12/13 02:08:39;;;;;;;;;;;;;;;17.47;61.78;97700.84;2068575;28;19930;-68
2023/12/13 02:09:41;;;;;;;;;;;;;;;17.51;61.92;97685.97;2069434;28;20393;-67
2023/12/13 02:10:42;;;;;;;;;;;;;;;17.49;61.78;97688.03;2065787;28;19956;-68
2023/12/13 02:11:43;;;;;;;;;;;;;;;17.48;61.90;97681.88;2067868;28;20361;-69
2023/12/13 02:12:44;;;;;;;;;;;;;;;17.47;62.05;97680.25;2066931;28;19932;-67
2023/12/13 02:13:46;;;;;;;;;;;;;;;17.47;62.07;97672.19;2068573;28;19944;-67
2023/12/13 02:14:48;;;;;;;;;;;;;;;17.47;61.79;97674.03;2061686;28;19929;-68
2023/12/13 02:15:50;;;;;;;;;;;;;;;17.49;61.78;97669.28;2068916;28;19987;-68
2023/12/13 02:16:50;;;;;;;;;;;;;;;17.50;61.83;97670.94;2067236;28;19926;-67
2023/12/13 02:17:52;;;;;;;;;;;;;;;17.48;61.74;97671.16;2067513;28;19967;-67
2023/12/13 02:18:53;;;;;;;;;;;;;;;17.48;61.67;97663.09;2067690;28;19925;-67
2023/12/13 02:19:55;;;;;;;;;;;;;;;17.48;61.70;97663.09;2068619;28;19925;-67
2023/12/13 02:20:55;;;;;;;;;;;;;;;17.46;61.75;97664.34;2066375;28;20604;-67
2023/12/13 02:21:57;;;;;;;;;;;;;;;17.46;61.68;97657.13;2073176;28;19953;-66
2023/12/13 02:22:59;;;;;;;;;;;;;;;17.47;61.85;97648.06;2067477;28;19925;-67
2023/12/13 02:24:01;;;;;;;;;;;;;;;17.48;61.66;97647.00;2066519;28;23597;-67
2023/12/13 02:25:04;;;;;;;;;;;;;;;17.45;61.97;97650.13;2065419;28;20305;-67
2023/12/13 02:26:05;;;;;;;;;;;;;;;17.46;61.70;97641.03;2076840;28;19928;-69
2023/12/13 02:27:06;;;;;;;;;;;;;;;17.48;61.85;97644.34;2067933;28;20341;-69
2023/12/13 02:28:09;;;;;;;;;;;;;;;17.45;61.79;97635.91;2069069;28;19929;-68
2023/12/13 02:29:11;;;;;;;;;;;;;;;17.45;61.75;97646.66;2066329;28;19928;-68
2023/12/13 02:30:13;;;;;;;;;;;;;;;17.44;61.95;97648.50;2068383;28;20446;-67
2023/12/13 02:31:16;;;;;;;;;;;;;;;17.44;61.89;97648.50;2065085;28;20548;-69
2023/12/13 02:32:17;;;;;;;;;;;;;;;17.43;61.98;97649.53;2069905;28;20043;-67
2023/12/13 02:33:18;;;;;;;;;;;;;;;17.45;61.77;97650.13;2066066;28;20300;-67
2023/12/13 02:34:20;;;;;;;;;;;;;;;17.42;61.91;97643.34;2066584;28;19961;-68
2023/12/13 02:35:21;;;;;;;;;;;;;;;17.44;61.71;97645.81;2064258;28;20384;-67
2023/12/13 02:36:22;;;;;;;;;;;;;;;17.44;61.82;97637.78;2068007;28;20008;-67
2023/12/13 02:37:24;;;;;;;;;;;;;;;17.46;61.70;97640.22;2067442;28;19933;-69
2023/12/13 02:38:27;;;;;;;;;;;;;;;17.41;61.78;97633.69;2065712;28;19964;-71
2023/12/13 02:39:27;;;;;;;;;;;;;;;17.42;61.96;97629.13;2065400;28;19936;-67
2023/12/13 02:40:28;;;;;;;;;;;;;;;17.41;61.94;97625.63;2064699;28;20957;-68
2023/12/13 02:41:32;;;;;;;;;;;;;;;17.44;61.78;97629.75;2066591;28;19925;-67
2023/12/13 02:42:32;;;;;;;;;;;;;;;17.43;61.69;97633.44;2065620;28;19925;-71
2023/12/13 02:43:34;;;;;;;;;;;;;;;17.46;61.70;97638.38;2066296;28;20355;-67
2023/12/13 02:44:35;;;;;;;;;;;;;;;17.41;61.68;97633.69;2067455;28;19922;-67
2023/12/13 02:45:36;;;;;;;;;;;;;;;17.41;61.71;97632.84;2069538;28;19929;-68
2023/12/13 02:46:37;;;;;;;;;;;;;;;17.42;61.76;97639.88;2065833;28;19936;-68
2023/12/13 02:47:41;;;;;;;;;;;;;;;17.41;61.84;97632.84;2068427;28;21049;-68
2023/12/13 02:48:42;;;;;;;;;;;;;;;17.42;61.93;97631.81;2066489;28;19932;-69
2023/12/13 02:49:42;;;;;;;;;;;;;;;17.41;61.71;97638.19;2064680;28;19929;-68
2023/12/13 02:50:44;;;;;;;;;;;;;;;17.39;62.04;97629.59;2069170;28;19922;-67
2023/12/13 02:51:44;;;;;;;;;;;;;;;17.37;61.77;97631.66;2068066;28;20370;-67
2023/12/13 02:52:46;;;;;;;;;;;;;;;17.39;62.00;97629.59;2072217;28;19983;-68
2023/12/13 02:53:48;;;;;;;;;;;;;;;17.40;61.83;97636.56;2071368;28;19929;-68
2023/12/13 02:54:50;;;;;;;;;;;;;;;17.39;61.82;97638.44;2067188;28;20021;-67
2023/12/13 02:55:50;;;;;;;;;;;;;;;17.38;62.14;97630.59;2061735;28;20393;-67
2023/12/13 02:56:52;;;;;;;;;;;;;;;17.38;61.98;97623.41;2075458;28;19982;-67
2023/12/13 02:57:53;;;;;;;;;;;;;;;17.40;61.84;97631.22;2076473;28;19940;-67
2023/12/13 02:58:53;;;;;;;;;;;;;;;17.37;61.85;97624.44;2067991;28;20007;-68
2023/12/13 02:59:55;;;;;;;;;;;;;;;17.38;61.71;97622.56;2068428;28;20055;-67
2023/12/13 03:00:55;;;;;;;;;;;;;;;17.38;61.86;97628.75;2074654;28;20402;-68
2023/12/13 03:01:57;;;;;;;;;;;;;;;17.38;61.85;97622.56;2074837;28;19952;-68
2023/12/13 03:02:57;;;;;;;;;;;;;;;17.38;61.90;97626.09;2076411;28;20418;-67
2023/12/13 03:04:02;;;;;;;;;;;;;;;17.38;61.77;97615.38;2076058;28;19964;-68
2023/12/13 03:05:03;;;;;;;;;;;;;;;17.39;61.88;97621.53;2075277;28;20366;-68
2023/12/13 03:06:05;;;;;;;;;;;;;;;17.40;61.73;97620.50;2067519;28;20005;-68
2023/12/13 03:07:05;;;;;;;;;;;;;;;17.38;61.92;97612.69;2075132;28;20344;-66
2023/12/13 03:08:07;;;;;;;;;;;;;;;17.37;61.86;97607.53;2067500;28;19925;-68
2023/12/13 03:09:09;;;;;;;;;;;;;;;17.34;61.80;97595.38;2069388;28;20281;-69
2023/12/13 03:10:11;;;;;;;;;;;;;;;17.36;61.80;97606.72;2069206;28;19921;-70
2023/12/13 03:11:11;;;;;;;;;;;;;;;17.36;62.07;97597.84;2074541;28;19921;-68
2023/12/13 03:12:12;;;;;;;;;;;;;;;17.36;61.96;97604.03;2078106;28;19948;-68
2023/12/13 03:13:14;;;;;;;;;;;;;;;17.34;61.90;97605.28;2076674;28;20376;-67
2023/12/13 03:14:14;;;;;;;;;;;;;;;17.36;61.74;97603.22;2075341;28;19929;-68
2023/12/13 03:15:16;;;;;;;;;;;;;;;17.35;61.84;97604.25;2062996;28;19967;-67
2023/12/13 03:16:17;;;;;;;;;;;;;;;17.34;62.04;97605.28;2063937;28;19926;-67
2023/12/13 03:17:18;;;;;;;;;;;;;;;17.33;61.91;97607.16;2069364;28;19964;-68
2023/12/13 03:18:19;;;;;;;;;;;;;;;17.33;61.93;97598.31;2067198;28;19933;-67
2023/12/13 03:19:20;;;;;;;;;;;;;;;17.35;61.72;97602.38;2069841;28;19980;-68
2023/12/13 03:20:21;;;;;;;;;;;;;;;17.33;61.90;97593.75;2067484;28;19922;-67
2023/12/13 03:21:23;;;;;;;;;;;;;;;17.32;61.97;97602.00;2066015;28;19925;-67
2023/12/13 03:22:24;;;;;;;;;;;;;;;17.32;61.76;97602.81;2065679;28;19926;-68
2023/12/13 03:23:26;;;;;;;;;;;;;;;17.33;61.86;97583.03;2067717;28;19929;-70
2023/12/13 03:24:28;;;;;;;;;;;;;;;17.33;61.96;97590.25;2065486;28;19952;-67
2023/12/13 03:25:29;;;;;;;;;;;;;;;17.33;61.76;97596.44;2066160;28;19973;-68
2023/12/13 03:26:30;;;;;;;;;;;;;;;17.33;61.85;97599.13;2066140;28;19933;-68
2023/12/13 03:27:32;;;;;;;;;;;;;;;17.34;61.98;97594.56;2065915;28;21465;-70
2023/12/13 03:28:32;;;;;;;;;;;;;;;17.34;61.93;97591.91;2069735;28;19929;-68
2023/12/13 03:29:33;;;;;;;;;;;;;;;17.33;62.02;97588.41;2066970;28;19957;-68
2023/12/13 03:30:34;;;;;;;;;;;;;;;17.32;61.79;97585.94;2068975;28;19926;-68
2023/12/13 03:31:35;;;;;;;;;;;;;;;17.32;61.87;97584.06;2068838;28;20404;-67
2023/12/13 03:32:36;;;;;;;;;;;;;;;17.31;62.05;97584.28;2068406;28;19971;-70
2023/12/13 03:33:38;;;;;;;;;;;;;;;17.33;61.90;97590.25;2068507;28;20381;-67
2023/12/13 03:34:38;;;;;;;;;;;;;;;17.33;61.82;97587.59;2072886;28;19975;-68
2023/12/13 03:35:40;;;;;;;;;;;;;;;17.32;61.69;97588.59;2078928;28;19978;-67
2023/12/13 03:36:41;;;;;;;;;;;;;;;17.32;61.90;97589.41;2077509;28;20376;-68
2023/12/13 03:37:41;;;;;;;;;;;;;;;17.31;61.89;97590.47;2078100;28;19932;-69
2023/12/13 03:38:43;;;;;;;;;;;;;;;17.30;61.92;97591.53;2071330;28;19921;-68
2023/12/13 03:39:45;;;;;;;;;;;;;;;17.28;61.76;97592.78;2069604;28;19921;-69
2023/12/13 03:40:47;;;;;;;;;;;;;;;17.31;61.69;97586.97;2067482;28;20021;-70
2023/12/13 03:41:47;;;;;;;;;;;;;;;17.31;61.84;97584.28;2075027;28;21429;-68
2023/12/13 03:42:49;;;;;;;;;;;;;;;17.28;62.08;97585.56;2071211;28;20408;-68
2023/12/13 03:43:49;;;;;;;;;;;;;;;17.29;61.82;97581.81;2069682;28;19928;-69
2023/12/13 03:44:51;;;;;;;;;;;;;;;17.29;61.98;97586.38;2066161;28;20367;-68
2023/12/13 03:45:52;;;;;;;;;;;;;;;17.29;61.90;97581.00;2065905;28;19921;-67
2023/12/13 03:46:54;;;;;;;;;;;;;;;17.28;61.98;97585.56;2067735;28;20395;-68
2023/12/13 03:47:55;;;;;;;;;;;;;;;17.29;61.96;97578.31;2076846;28;19929;-67
2023/12/13 03:48:57;;;;;;;;;;;;;;;17.27;61.79;97585.75;2072384;28;20024;-68
2023/12/13 03:49:57;;;;;;;;;;;;;;;17.28;61.84;97588.22;2067416;28;19936;-68
2023/12/13 03:51:01;;;;;;;;;;;;;;;17.28;62.10;97579.38;2069543;28;19929;-68
2023/12/13 03:52:02;;;;;;;;;;;;;;;17.26;61.96;97573.41;2070251;28;19932;-70
2023/12/13 03:53:03;;;;;;;;;;;;;;;17.27;61.88;97577.72;2076349;28;19960;-68
2023/12/13 03:54:05;;;;;;;;;;;;;;;17.27;61.88;97569.69;2066555;28;19937;-66
2023/12/13 03:55:08;;;;;;;;;;;;;;;17.27;61.96;97573.19;2067290;28;20025;-67
2023/12/13 03:56:09;;;;;;;;;;;;;;;17.27;61.87;97580.41;2068235;28;19933;-68
2023/12/13 03:57:10;;;;;;;;;;;;;;;17.25;61.96;97586.00;2068493;28;19921;-68
2023/12/13 03:58:12;;;;;;;;;;;;;;;17.25;61.92;97579.81;2068443;28;19928;-69
2023/12/13 03:59:12;;;;;;;;;;;;;;;17.26;61.99;97578.78;2076629;28;19921;-67
2023/12/13 04:00:14;;;;;;;;;;;;;;;17.24;61.85;97573.63;2071224;28;19976;-67
2023/12/13 04:01:15;;;;;;;;;;;;;;;17.26;61.82;97576.09;2077982;28;20566;-69
2023/12/13 04:02:16;;;;;;;;;;;;;;;17.24;61.86;97575.47;2077503;28;19960;-67
2023/12/13 04:03:17;;;;;;;;;;;;;;;17.24;61.96;97573.63;2077171;28;20289;-68
2023/12/13 04:04:18;;;;;;;;;;;;;;;17.24;62.00;97573.63;2068946;28;20005;-67
2023/12/13 04:05:19;;;;;;;;;;;;;;;17.24;61.84;97572.81;2069103;28;19922;-67
2023/12/13 04:06:20;;;;;;;;;;;;;;;17.23;62.07;97571.19;2068725;28;19954;-67
2023/12/13 04:07:21;;;;;;;;;;;;;;;17.21;61.92;97568.69;2068686;28;19929;-67
2023/12/13 04:08:22;;;;;;;;;;;;;;;17.20;62.11;97567.06;2070324;28;19928;-68
2023/12/13 04:09:23;;;;;;;;;;;;;;;17.17;62.18;97567.53;2069226;28;19960;-68
2023/12/13 04:10:26;;;;;;;;;;;;;;;17.17;62.05;97567.53;2067535;28;22057;-67
2023/12/13 04:11:27;;;;;;;;;;;;;;;17.17;62.14;97572.88;2068326;28;19921;-70
2023/12/13 04:12:28;;;;;;;;;;;;;;;17.19;62.10;97576.16;2068041;28;20296;-68
2023/12/13 04:13:30;;;;;;;;;;;;;;;17.19;62.07;97563.59;2070195;28;20004;-68
2023/12/13 04:14:30;;;;;;;;;;;;;;;17.26;61.82;97565.38;2069017;28;19921;-68
2023/12/13 04:15:32;;;;;;;;;;;;;;;17.31;61.74;97562.84;2069148;28;20419;-67
2023/12/13 04:16:32;;;;;;;;;;;;;;;17.33;61.57;97561.59;2073325;28;19921;-67
2023/12/13 04:17:34;;;;;;;;;;;;;;;17.37;61.29;97565.47;2078065;28;19967;-67
2023/12/13 04:18:35;;;;;;;;;;;;;;;17.40;61.31;97562.34;2072829;28;19929;-67
2023/12/13 04:19:36;;;;;;;;;;;;;;;17.44;61.22;97576.13;2068953;28;19972;-67
2023/12/13 04:20:37;;;;;;;;;;;;;;;17.46;61.38;97566.00;2072670;28;20455;-66
2023/12/13 04:21:39;;;;;;;;;;;;;;;17.52;61.30;97564.28;2072790;28;19921;-67
2023/12/13 04:22:40;;;;;;;;;;;;;;;17.53;61.07;97556.03;2068939;28;19932;-67
2023/12/13 04:23:41;;;;;;;;;;;;;;;17.58;60.96;97558.06;2069693;28;19971;-67
2023/12/13 04:24:42;;;;;;;;;;;;;;;17.59;61.26;97557.81;2069021;28;19925;-70
2023/12/13 04:25:44;;;;;;;;;;;;;;;17.62;61.14;97564.59;2067319;28;20312;-69
2023/12/13 04:26:46;;;;;;;;;;;;;;;17.63;61.24;97563.53;2066497;28;20044;-66
2023/12/13 04:27:47;;;;;;;;;;;;;;;17.63;61.03;97556.34;2068133;28;19925;-68
2023/12/13 04:28:49;;;;;;;;;;;;;;;17.66;61.08;97555.03;2070070;28;19929;-67
2023/12/13 04:29:49;;;;;;;;;;;;;;;17.68;60.97;97546.78;2068543;28;20312;-67
2023/12/13 04:30:50;;;;;;;;;;;;;;;17.69;61.12;97564.50;2068939;28;19961;-67
2023/12/13 04:31:51;;;;;;;;;;;;;;;17.70;60.98;97556.25;2065474;28;22085;-66
2023/12/13 04:32:52;;;;;;;;;;;;;;;17.72;61.06;97558.69;2068380;28;19930;-67
2023/12/13 04:33:54;;;;;;;;;;;;;;;17.74;61.03;97561.97;2070299;28;19948;-69
2023/12/13 04:34:54;;;;;;;;;;;;;;;17.73;61.16;97558.47;2066057;28;19925;-67
2023/12/13 04:35:58;;;;;;;;;;;;;;;17.74;61.04;97560.13;2069237;28;19964;-67
2023/12/13 04:37:00;;;;;;;;;;;;;;;17.77;60.92;97553.47;2067913;28;19921;-70
2023/12/13 04:38:01;;;;;;;;;;;;;;;17.79;60.99;97551.44;2069404;28;19929;-67
2023/12/13 04:39:03;;;;;;;;;;;;;;;17.81;61.17;97552.03;2067698;28;19922;-67
2023/12/13 04:40:04;;;;;;;;;;;;;;;17.84;61.14;97554.25;2068246;28;19921;-66
2023/12/13 04:41:06;;;;;;;;;;;;;;;17.84;61.10;97552.41;2077045;28;19932;-67
2023/12/13 04:42:08;;;;;;;;;;;;;;;17.85;60.91;97553.22;2078537;28;20439;-67
2023/12/13 04:43:08;;;;;;;;;;;;;;;17.85;61.07;97548.66;2075130;28;20040;-67
2023/12/13 04:44:12;;;;;;;;;;;;;;;17.86;60.84;97552.19;2069862;28;20718;-67
2023/12/13 04:45:12;;;;;;;;;;;;;;;17.85;60.80;97548.66;2078606;28;19975;-68
2023/12/13 04:46:14;;;;;;;;;;;;;;;17.88;60.89;97544.72;2076966;28;20376;-67
2023/12/13 04:47:15;;;;;;;;;;;;;;;17.90;61.10;97545.31;2078265;28;19925;-67
2023/12/13 04:48:16;;;;;;;;;;;;;;;17.90;60.85;97541.81;2076120;28;20482;-67
2023/12/13 04:49:17;;;;;;;;;;;;;;;17.92;61.09;97539.75;2067943;28;19929;-69
2023/12/13 04:50:18;;;;;;;;;;;;;;;17.93;61.27;97544.84;2074227;28;20789;-69
2023/12/13 04:51:19;;;;;;;;;;;;;;;17.96;60.86;97544.41;2066543;28;20286;-68
2023/12/13 04:52:20;;;;;;;;;;;;;;;17.96;60.84;97555.13;2066777;28;20013;-67
2023/12/13 04:53:21;;;;;;;;;;;;;;;17.95;60.83;97548.16;2072265;28;19932;-67
2023/12/13 04:54:22;;;;;;;;;;;;;;;17.98;61.07;97541.50;2075452;28;19932;-67
2023/12/13 04:55:24;;;;;;;;;;;;;;;18.00;61.10;97547.47;2073429;28;20020;-67
2023/12/13 04:56:26;;;;;;;;;;;;;;;18.00;61.09;97544.78;2068763;28;21731;-69
2023/12/13 04:57:26;;;;;;;;;;;;;;;18.01;61.07;97543.75;2067528;28;19928;-67
2023/12/13 04:58:28;;;;;;;;;;;;;;;18.03;61.08;97539.78;2066514;28;20427;-67
2023/12/13 04:59:29;;;;;;;;;;;;;;;18.04;61.00;97538.72;2068348;28;19944;-67
2023/12/13 05:00:30;;;;;;;;;;;;;;;18.06;61.03;97544.69;2070789;28;20403;-67
2023/12/13 05:01:31;;;;;;;;;;;;;;;18.07;60.83;97540.97;2073170;28;19922;-67
2023/12/13 05:02:32;;;;;;;;;;;;;;;18.09;60.75;97546.13;2069475;28;19921;-67
2023/12/13 05:03:33;;;;;;;;;;;;;;;18.10;60.99;97545.06;2071479;28;20272;-68
2023/12/13 05:04:35;;;;;;;;;;;;;;;18.11;60.88;97551.22;2077717;28;19975;-71
2023/12/13 05:05:35;;;;;;;;;;;;;;;18.12;60.88;97547.53;2071923;28;19925;-67
2023/12/13 05:06:37;;;;;;;;;;;;;;;18.12;60.98;97542.16;2070316;28;20032;-67
2023/12/13 05:07:38;;;;;;;;;;;;;;;18.13;60.88;97546.47;2067236;28;19921;-67
2023/12/13 05:08:39;;;;;;;;;;;;;;;18.15;60.93;97547.06;2074053;28;19947;-67
2023/12/13 05:09:40;;;;;;;;;;;;;;;18.20;60.72;97557.94;2070302;28;20753;-67
2023/12/13 05:10:43;;;;;;;;;;;;;;;18.17;61.02;97543.13;2069095;28;19991;-67
2023/12/13 05:11:45;;;;;;;;;;;;;;;18.17;61.11;97547.66;2067389;28;20292;-67
2023/12/13 05:12:46;;;;;;;;;;;;;;;18.19;61.01;97545.56;2068694;28;19940;-68
2023/12/13 05:13:47;;;;;;;;;;;;;;;18.19;60.82;97538.34;2069096;28;19928;-67
2023/12/13 05:14:49;;;;;;;;;;;;;;;18.20;60.79;97539.16;2074118;28;19982;-69
2023/12/13 05:15:49;;;;;;;;;;;;;;;18.19;60.94;97534.81;2076085;28;19932;-68
2023/12/13 05:16:51;;;;;;;;;;;;;;;18.21;60.95;97536.22;2072106;28;19987;-67
2023/12/13 05:17:51;;;;;;;;;;;;;;;18.22;60.99;97542.41;2069839;28;19925;-69
2023/12/13 05:18:53;;;;;;;;;;;;;;;18.22;60.72;97540.56;2069591;28;20400;-67
2023/12/13 05:19:53;;;;;;;;;;;;;;;18.22;61.14;97547.78;2068003;28;19929;-69